Time;durP1;ratioP1;P1;durP2;ratioP2;P2;SDS_P1;SDS_P2;PMS_P1;PMS_P2;Temp;Humidity;BMP_temperature;BMP_pressure;BME280_temperature;BME280_humidity;BME280_pressure;Samples;Min_cycle;Max_cycle;Signal;HPM_P1;HPM_P2
2023/01/07 05:58:41;;;;;;;;;;;;;;;10.47;78.53;98374.03;5762938;24;19974;-65
2023/01/07 06:01:06;;;;;;;;;;;;;;;10.45;77.95;98374.13;4853107;29;20011;-64
2023/01/07 06:03:31;;;;;;;;;;;;;;;10.46;78.56;98367.13;4860821;29;19971;-64
2023/01/07 06:05:57;;;;;;;;;;;;;;;10.48;78.92;98365.22;4869492;29;19954;-64
2023/01/07 06:08:22;;;;;;;;;;;;;;;10.49;78.76;98369.50;4861883;29;19972;-65
2023/01/07 06:10:48;;;;;;;;;;;;;;;10.47;78.33;98365.34;4860907;29;20078;-64
2023/01/07 06:13:13;;;;;;;;;;;;;;;10.41;77.96;98358.69;4861031;29;20372;-64
2023/01/07 06:15:38;;;;;;;;;;;;;;;10.45;78.73;98352.31;4852222;29;20384;-64
2023/01/07 06:18:03;;;;;;;;;;;;;;;10.48;78.61;98351.28;4861903;29;19920;-64
2023/01/07 06:20:33;;;;;;;;;;;;;;;10.50;78.46;98350.25;4852635;29;20023;-64
2023/01/07 06:22:58;;;;;;;;;;;;;;;10.54;79.02;98356.13;4860755;29;19916;-64
2023/01/07 06:25:23;;;;;;;;;;;;;;;10.53;78.33;98354.41;4857029;29;19920;-64
2023/01/07 06:27:48;;;;;;;;;;;;;;;10.54;78.36;98351.72;4862089;29;19964;-64
2023/01/07 06:30:14;;;;;;;;;;;;;;;10.55;78.85;98356.00;4856415;29;20022;-64
2023/01/07 06:32:39;;;;;;;;;;;;;;;10.53;78.36;98350.03;4860999;29;20056;-64
2023/01/07 06:35:05;;;;;;;;;;;;;;;10.48;77.69;98346.03;4854103;29;20018;-64
2023/01/07 06:37:31;;;;;;;;;;;;;;;10.43;78.26;98344.56;4858985;29;19957;-64
2023/01/07 06:39:57;;;;;;;;;;;;;;;10.38;77.79;98343.16;4859907;29;19959;-64
2023/01/07 06:42:22;;;;;;;;;;;;;;;10.34;78.75;98334.66;4860540;29;19932;-66
2023/01/07 06:44:47;;;;;;;;;;;;;;;10.32;77.97;98330.44;4859963;29;19920;-66
2023/01/07 06:47:12;;;;;;;;;;;;;;;10.28;77.79;98334.22;4857449;29;19928;-66
2023/01/07 06:49:37;;;;;;;;;;;;;;;10.24;78.34;98336.16;4859399;29;19935;-66
2023/01/07 06:52:03;;;;;;;;;;;;;;;10.20;78.35;98335.53;4859781;29;19932;-66
2023/01/07 06:54:28;;;;;;;;;;;;;;;10.08;76.77;98333.72;4861024;29;19923;-64
2023/01/07 06:56:53;;;;;;;;;;;;;;;9.89;76.98;98333.19;4858525;29;20418;-64
2023/01/07 06:59:18;;;;;;;;;;;;;;;9.73;77.28;98328.91;4859367;29;20031;-64
2023/01/07 07:01:44;;;;;;;;;;;;;;;9.57;77.09;98335.25;4855056;29;21672;-64
2023/01/07 07:04:09;;;;;;;;;;;;;;;9.45;77.91;98335.03;4852710;29;19955;-65
2023/01/07 07:06:34;;;;;;;;;;;;;;;9.36;78.46;98337.38;4856876;29;19920;-64
2023/01/07 07:08:59;;;;;;;;;;;;;;;9.28;78.84;98337.84;4860121;29;19916;-64
2023/01/07 07:11:25;;;;;;;;;;;;;;;9.20;78.84;98335.72;4858722;29;19931;-64
2023/01/07 07:13:50;;;;;;;;;;;;;;;9.14;79.15;98330.00;4855104;29;19939;-64
2023/01/07 07:16:15;;;;;;;;;;;;;;;9.06;79.35;98327.88;4859014;29;19920;-64
2023/01/07 07:18:40;;;;;;;;;;;;;;;9.03;79.76;98323.66;4858911;29;19931;-64
2023/01/07 07:21:05;;;;;;;;;;;;;;;9.01;79.86;98333.34;4855543;29;19920;-64
2023/01/07 07:23:31;;;;;;;;;;;;;;;8.97;79.95;98325.78;4858911;29;19995;-65
2023/01/07 07:25:56;;;;;;;;;;;;;;;8.95;80.00;98327.69;4857529;29;19927;-64
2023/01/07 07:28:21;;;;;;;;;;;;;;;8.92;80.37;98325.25;4858417;29;19916;-63
2023/01/07 07:30:46;;;;;;;;;;;;;;;8.90;80.89;98322.69;4854602;29;19932;-63
2023/01/07 07:33:13;;;;;;;;;;;;;;;8.89;80.98;98320.19;4859804;29;19927;-64
2023/01/07 07:35:38;;;;;;;;;;;;;;;8.88;80.98;98313.25;4858620;29;20339;-63
2023/01/07 07:38:04;;;;;;;;;;;;;;;8.87;80.69;98308.97;4859109;29;19920;-64
2023/01/07 07:40:29;;;;;;;;;;;;;;;8.87;81.05;98308.97;4860541;29;19916;-64
2023/01/07 07:42:54;;;;;;;;;;;;;;;8.86;80.91;98310.75;4851196;29;19977;-64
2023/01/07 07:45:20;;;;;;;;;;;;;;;8.86;81.04;98312.53;4860478;29;19916;-64
2023/01/07 07:47:45;;;;;;;;;;;;;;;8.85;81.50;98310.84;4858010;29;19962;-64
2023/01/07 07:50:10;;;;;;;;;;;;;;;8.86;81.51;98304.69;4857526;29;20234;-64
2023/01/07 07:52:35;;;;;;;;;;;;;;;8.85;81.56;98308.25;4859356;29;19924;-65
2023/01/07 07:55:01;;;;;;;;;;;;;;;8.85;81.17;98297.78;4859595;29;19920;-64
2023/01/07 07:57:26;;;;;;;;;;;;;;;8.86;81.58;98304.69;4859060;29;19927;-65
2023/01/07 07:59:51;;;;;;;;;;;;;;;8.85;81.15;98303.84;4855803;29;19927;-65
2023/01/07 08:02:18;;;;;;;;;;;;;;;8.87;81.38;98301.13;4857863;29;19920;-65
2023/01/07 08:04:43;;;;;;;;;;;;;;;8.87;81.70;98299.34;4860293;29;19977;-63
2023/01/07 08:07:09;;;;;;;;;;;;;;;8.89;81.73;98296.66;4859934;29;19924;-63
2023/01/07 08:09:34;;;;;;;;;;;;;;;8.91;81.86;98303.47;4856285;29;21596;-65
2023/01/07 08:11:59;;;;;;;;;;;;;;;8.91;81.71;98294.75;4858496;29;19932;-65
2023/01/07 08:14:25;;;;;;;;;;;;;;;8.93;81.83;98295.53;4858311;29;20455;-64
2023/01/07 08:16:50;;;;;;;;;;;;;;;8.94;81.37;98286.75;4858969;29;20337;-65
2023/01/07 08:19:15;;;;;;;;;;;;;;;8.96;81.58;98290.94;4856433;29;19920;-65
2023/01/07 08:21:40;;;;;;;;;;;;;;;8.94;81.44;98282.34;4855969;29;19927;-64
2023/01/07 08:24:05;;;;;;;;;;;;;;;8.94;81.80;98287.56;4858221;29;19956;-64
2023/01/07 08:26:31;;;;;;;;;;;;;;;8.96;81.44;98280.47;4859659;29;19981;-65
2023/01/07 08:28:56;;;;;;;;;;;;;;;8.98;81.48;98280.38;4851964;29;19921;-65
2023/01/07 08:31:21;;;;;;;;;;;;;;;9.00;81.22;98281.97;4853430;29;20414;-64
2023/01/07 08:33:46;;;;;;;;;;;;;;;9.00;81.77;98270.69;4851625;29;19927;-64
2023/01/07 08:36:12;;;;;;;;;;;;;;;9.00;81.26;98265.44;4858711;29;19920;-64
2023/01/07 08:38:37;;;;;;;;;;;;;;;9.00;81.61;98260.22;4860012;29;19920;-63
2023/01/07 08:41:02;;;;;;;;;;;;;;;8.99;81.34;98263.78;4856304;29;19930;-64
2023/01/07 08:43:29;;;;;;;;;;;;;;;8.99;81.37;98259.38;4858550;29;20352;-63
2023/01/07 08:45:54;;;;;;;;;;;;;;;9.00;81.26;98254.97;4859697;29;19954;-64
2023/01/07 08:48:19;;;;;;;;;;;;;;;9.02;81.41;98253.13;4859986;29;19951;-64
2023/01/07 08:50:48;;;;;;;;;;;;;;;9.03;81.27;98257.41;4857524;29;20341;-64
2023/01/07 08:53:13;;;;;;;;;;;;;;;9.05;81.54;98252.94;4856481;29;19975;-64
2023/01/07 08:55:38;;;;;;;;;;;;;;;9.05;81.45;98252.94;4859737;29;20485;-64
2023/01/07 08:58:03;;;;;;;;;;;;;;;9.07;81.48;98256.28;4858762;29;20349;-63
2023/01/07 09:00:29;;;;;;;;;;;;;;;9.08;81.31;98247.50;4859067;29;20341;-64
2023/01/07 09:02:54;;;;;;;;;;;;;;;9.12;81.48;98256.84;4856447;29;20006;-63
2023/01/07 09:05:19;;;;;;;;;;;;;;;9.14;80.80;98252.34;4856053;29;19928;-64
2023/01/07 09:07:44;;;;;;;;;;;;;;;9.16;80.97;98244.41;4859504;29;19916;-64
2023/01/07 09:10:10;;;;;;;;;;;;;;;9.18;80.95;98253.84;4859150;29;19916;-65
2023/01/07 09:12:35;;;;;;;;;;;;;;;9.21;81.09;98250.19;4859167;29;19927;-63
2023/01/07 09:15:00;;;;;;;;;;;;;;;9.22;80.48;98244.00;4855669;29;19959;-63
2023/01/07 09:17:26;;;;;;;;;;;;;;;9.24;80.49;98240.38;4853296;29;20477;-64
2023/01/07 09:19:51;;;;;;;;;;;;;;;9.26;80.40;98241.13;4858986;29;20006;-64
2023/01/07 09:22:16;;;;;;;;;;;;;;;9.28;80.51;98239.25;4858243;29;19923;-63
2023/01/07 09:24:41;;;;;;;;;;;;;;;9.31;80.41;98238.22;4857443;29;19940;-63
2023/01/07 09:27:07;;;;;;;;;;;;;;;9.30;80.05;98240.94;4852516;29;19920;-65
2023/01/07 09:29:32;;;;;;;;;;;;;;;9.31;79.74;98246.06;4855765;29;19922;-64
2023/01/07 09:31:57;;;;;;;;;;;;;;;9.32;79.54;98249.53;4855969;29;20440;-63
2023/01/07 09:34:22;;;;;;;;;;;;;;;9.34;80.05;98243.25;4854355;29;20022;-65
2023/01/07 09:36:48;;;;;;;;;;;;;;;9.36;79.67;98243.16;4851508;29;20019;-65
2023/01/07 09:39:13;;;;;;;;;;;;;;;9.40;79.61;98236.81;4859705;29;19927;-64
2023/01/07 09:41:47;;;;;;;;;;;;;;;9.42;79.18;98242.78;4861066;29;19920;-63
2023/01/07 09:44:14;;;;;;;;;;;;;;;9.43;79.10;98239.22;4861914;29;19923;-65
2023/01/07 09:46:40;;;;;;;;;;;;;;;9.46;79.42;98246.88;4858911;29;20392;-63
2023/01/07 09:49:06;;;;;;;;;;;;;;;9.49;79.06;98242.28;4869834;29;19955;-62
2023/01/07 09:51:37;;;;;;;;;;;;;;;9.53;78.55;98237.69;4862370;29;19924;-63
2023/01/07 09:54:03;;;;;;;;;;;;;;;9.56;78.54;98245.34;4859711;29;20356;-63
2023/01/07 09:56:29;;;;;;;;;;;;;;;9.59;78.24;98239.91;4861627;29;19916;-65
2023/01/07 09:58:55;;;;;;;;;;;;;;;9.62;78.21;98237.09;4859240;29;19924;-65
2023/01/07 10:01:26;;;;;;;;;;;;;;;9.66;78.06;98229.88;4845700;29;19916;-63
2023/01/07 10:04:10;;;;;;;;;;;;;;;9.68;77.71;98233.25;4862490;29;19995;-64
2023/01/07 10:06:35;;;;;;;;;;;;;;;9.73;77.15;98228.56;4862813;29;19972;-64
2023/01/07 10:09:29;;;;;;;;;;;;;;;9.75;77.26;98219.66;4859360;29;19924;-63
2023/01/07 10:12:13;;;;;;;;;;;;;;;9.80;76.75;98210.66;4859593;29;19924;-63
2023/01/07 10:14:57;;;;;;;;;;;;;;;9.86;76.74;98210.28;4858930;29;19920;-64
2023/01/07 10:17:26;;;;;;;;;;;;;;;9.93;76.14;98203.69;4860019;29;19921;-64
2023/01/07 10:19:59;;;;;;;;;;;;;;;9.99;75.65;98200.66;4843693;29;20448;-63
2023/01/07 10:22:29;;;;;;;;;;;;;;;10.06;75.54;98188.84;4855184;29;19920;-64
2023/01/07 10:24:55;;;;;;;;;;;;;;;10.15;74.92;98193.47;4844075;29;19916;-64
2023/01/07 10:27:27;;;;;;;;;;;;;;;10.25;75.11;98183.19;4841861;29;19924;-64
2023/01/07 10:29:53;;;;;;;;;;;;;;;13.13;76.20;98171.75;4848227;29;20324;-62
2023/01/07 10:32:19;;;;;;;;;;;;;;;14.69;66.96;98164.13;4843168;29;19924;-63
2023/01/07 10:34:54;;;;;;;;;;;;;;;15.43;62.59;98164.66;4844176;29;20440;-63
2023/01/07 10:37:28;;;;;;;;;;;;;;;15.32;57.31;98156.03;4857990;29;19932;-63
2023/01/07 10:40:02;;;;;;;;;;;;;;;14.37;58.01;98154.50;4855705;29;19924;-66
2023/01/07 10:42:31;;;;;;;;;;;;;;;13.77;60.71;98148.97;4839993;29;20505;-66
2023/01/07 10:45:02;;;;;;;;;;;;;;;13.35;62.05;98145.41;4842589;29;19920;-65
2023/01/07 10:47:39;;;;;;;;;;;;;;;13.07;63.12;98147.59;4840302;29;19976;-66
2023/01/07 10:50:20;;;;;;;;;;;;;;;12.84;64.18;98145.94;4854644;29;19916;-66
2023/01/07 10:52:55;;;;;;;;;;;;;;;12.67;64.16;98146.44;4860715;29;19963;-65
2023/01/07 10:55:24;;;;;;;;;;;;;;;12.57;64.52;98143.66;4856933;29;19955;-66
2023/01/07 10:57:49;;;;;;;;;;;;;;;12.50;64.42;98127.53;4859137;29;19931;-65
2023/01/07 11:00:14;;;;;;;;;;;;;;;12.24;63.44;98136.56;4859985;29;19920;-64
2023/01/07 11:02:43;;;;;;;;;;;;;;;12.28;64.31;98130.13;4858396;29;19920;-64
2023/01/07 11:05:09;;;;;;;;;;;;;;;12.31;65.58;98122.00;4854916;29;19920;-65
2023/01/07 11:07:48;;;;;;;;;;;;;;;12.30;64.46;98126.41;4853870;29;20373;-63
2023/01/07 11:10:14;;;;;;;;;;;;;;;12.33;64.56;98126.19;4856071;29;19980;-62
2023/01/07 11:12:40;;;;;;;;;;;;;;;12.36;64.49;98117.22;4859229;29;19935;-62
2023/01/07 11:15:07;;;;;;;;;;;;;;;12.34;64.88;98117.34;4857723;29;19920;-63
2023/01/07 11:17:43;;;;;;;;;;;;;;;12.33;64.48;98109.56;4853041;29;19920;-63
2023/01/07 11:20:09;;;;;;;;;;;;;;;12.29;64.73;98108.97;4859690;29;20011;-63
2023/01/07 11:22:35;;;;;;;;;;;;;;;12.24;64.71;98105.84;4860206;29;20051;-63
2023/01/07 11:25:01;;;;;;;;;;;;;;;12.14;63.87;98099.63;4861216;29;20282;-64
2023/01/07 11:27:30;;;;;;;;;;;;;;;12.08;64.36;98094.84;4854145;29;20418;-64
2023/01/07 11:30:14;;;;;;;;;;;;;;;11.97;63.54;98093.00;4851923;29;20003;-64
2023/01/07 11:32:39;;;;;;;;;;;;;;;11.81;63.42;98088.06;4861036;29;19947;-64
2023/01/07 11:35:14;;;;;;;;;;;;;;;11.75;64.22;98092.94;4860326;29;20336;-64
2023/01/07 11:37:40;;;;;;;;;;;;;;;11.72;64.22;98091.38;4860509;29;19927;-65
2023/01/07 11:40:11;;;;;;;;;;;;;;;11.80;64.58;98085.53;4855790;29;19924;-64
2023/01/07 11:42:45;;;;;;;;;;;;;;;11.84;63.94;98084.41;4858886;29;19984;-65
2023/01/07 11:45:18;;;;;;;;;;;;;;;11.86;62.79;98074.59;4858628;29;20432;-65
2023/01/07 11:47:45;;;;;;;;;;;;;;;11.95;62.00;98067.81;4858463;29;20308;-64
2023/01/07 16:57:28;;;;;;;;;;;;;;;7.50;74.78;97861.78;5469739;23;20805;-64
2023/01/07 16:59:54;;;;;;;;;;;;;;;7.44;74.61;97863.00;4871587;29;19947;-65
2023/01/07 17:02:26;;;;;;;;;;;;;;;7.41;75.55;97864.97;4858921;29;20289;-64
2023/01/07 17:04:51;;;;;;;;;;;;;;;7.30;75.82;97863.84;4888501;29;19916;-64
2023/01/07 17:07:17;;;;;;;;;;;;;;;7.23;74.97;97866.94;4858192;29;19920;-64
2023/01/07 17:09:42;;;;;;;;;;;;;;;7.18;75.35;97866.34;4858045;29;19939;-64
2023/01/07 17:12:13;;;;;;;;;;;;;;;7.10;76.19;97849.41;4857470;29;19926;-64
2023/01/07 17:14:42;;;;;;;;;;;;;;;7.02;75.88;97854.25;4857658;29;19963;-63
2023/01/07 17:17:17;;;;;;;;;;;;;;;6.98;76.41;97842.28;4858142;29;20015;-63
2023/01/07 17:19:45;;;;;;;;;;;;;;;6.92;76.27;97844.44;4859512;29;19916;-63
2023/01/07 17:22:25;;;;;;;;;;;;;;;6.87;76.01;97853.38;4845005;29;19920;-62
2023/01/07 17:24:50;;;;;;;;;;;;;;;6.81;76.80;97851.16;4840339;29;20330;-62
2023/01/07 17:27:18;;;;;;;;;;;;;;;6.73;76.77;97848.13;4845859;29;19916;-62
2023/01/07 17:29:43;;;;;;;;;;;;;;;6.66;77.08;97839.00;4842493;29;19920;-64
2023/01/07 17:32:09;;;;;;;;;;;;;;;6.66;77.43;97839.00;4842600;29;19927;-64
2023/01/07 17:34:34;;;;;;;;;;;;;;;6.71;77.15;97843.94;4841694;29;20003;-64
2023/01/07 17:36:59;;;;;;;;;;;;;;;6.74;78.01;97852.41;4857594;29;20535;-65
2023/01/07 17:39:24;;;;;;;;;;;;;;;6.71;78.48;97839.59;4859084;29;20392;-65
2023/01/07 17:44:34;;;;;;;;;;;;;;;6.75;77.94;97833.25;4860524;29;19927;-65
2023/01/07 17:46:59;;;;;;;;;;;;;;;6.75;78.06;97838.47;4842323;29;19916;-65
2023/01/07 17:49:24;;;;;;;;;;;;;;;6.73;77.90;97842.09;4840268;29;20380;-65
2023/01/07 17:51:50;;;;;;;;;;;;;;;6.69;78.69;97846.63;4857816;29;19931;-64
2023/01/07 17:54:22;;;;;;;;;;;;;;;6.67;78.89;97851.09;4857504;29;19992;-63
2023/01/07 17:56:47;;;;;;;;;;;;;;;6.64;77.93;97851.25;4856793;29;20250;-63
2023/01/07 17:59:13;;;;;;;;;;;;;;;6.62;78.28;97842.72;4857197;29;19920;-63
2023/01/07 18:01:39;;;;;;;;;;;;;;;6.63;78.83;97844.38;4852216;29;19916;-65
2023/01/07 18:04:04;;;;;;;;;;;;;;;6.57;78.90;97842.13;4862730;29;19927;-65
2023/01/07 18:06:33;;;;;;;;;;;;;;;6.55;78.78;97846.59;4865840;29;19944;-65
2023/01/07 18:08:58;;;;;;;;;;;;;;;6.52;78.59;97849.38;4861680;29;19939;-65
2023/01/07 18:14:08;;;;;;;;;;;;;;;6.41;78.28;97840.41;4861334;29;19932;-65
2023/01/07 18:16:34;;;;;;;;;;;;;;;6.37;77.85;97841.53;4862267;29;19920;-65
2023/01/07 18:18:59;;;;;;;;;;;;;;;6.34;78.30;97844.31;4860429;29;19968;-65
2023/01/07 18:21:24;;;;;;;;;;;;;;;6.33;78.68;97841.78;4855636;29;19917;-65
2023/01/07 18:23:49;;;;;;;;;;;;;;;6.26;77.94;97843.88;4852230;29;19931;-64
2023/01/07 18:26:14;;;;;;;;;;;;;;;6.21;79.27;97843.31;4862179;29;19920;-65
2023/01/07 18:28:40;;;;;;;;;;;;;;;6.19;79.51;97834.75;4861018;29;20019;-65
2023/01/07 18:31:05;;;;;;;;;;;;;;;6.17;79.23;97836.63;4862280;29;19959;-65
2023/01/07 18:33:30;;;;;;;;;;;;;;;6.16;79.90;97835.78;4860129;29;19921;-65
2023/01/07 18:35:55;;;;;;;;;;;;;;;6.13;79.79;97832.50;4855691;29;19927;-65
2023/01/07 18:38:21;;;;;;;;;;;;;;;6.11;79.65;97826.53;4853160;29;19927;-66
2023/01/07 18:40:46;;;;;;;;;;;;;;;6.10;79.20;97830.06;4852069;29;19920;-66
2023/01/07 18:43:15;;;;;;;;;;;;;;;6.08;79.24;97827.53;4860537;29;19931;-65
2023/01/07 18:45:40;;;;;;;;;;;;;;;6.07;79.32;97825.03;4850469;29;20393;-65
2023/01/07 18:48:06;;;;;;;;;;;;;;;7.02;90.02;97825.56;4864355;29;19927;-63
2023/01/07 18:50:32;;;;;;;;;;;;;;;6.72;83.93;97830.00;4845389;29;19916;-62
2023/01/07 18:52:57;;;;;;;;;;;;;;;6.53;80.56;97828.44;4842165;29;20295;-63
2023/01/07 18:55:22;;;;;;;;;;;;;;;6.41;79.63;97826.56;4853248;29;20365;-63
2023/01/07 18:57:47;;;;;;;;;;;;;;;6.34;79.40;97822.63;4860952;29;20437;-63
2023/01/07 19:00:13;;;;;;;;;;;;;;;6.23;79.77;97825.84;4862098;29;19927;-63
2023/01/07 19:02:38;;;;;;;;;;;;;;;6.18;79.92;97833.06;4859637;29;19920;-63
2023/01/07 19:05:04;;;;;;;;;;;;;;;6.42;85.52;97836.88;4858963;29;19927;-64
2023/01/07 19:07:29;;;;;;;;;;;;;;;6.36;82.78;97842.44;4857403;29;19924;-63
2023/01/07 19:09:54;;;;;;;;;;;;;;;6.31;81.54;97839.28;4854026;29;19917;-64
2023/01/07 19:12:19;;;;;;;;;;;;;;;6.27;80.73;97832.56;4861404;29;19951;-64
2023/01/07 19:14:44;;;;;;;;;;;;;;;6.24;80.59;97831.91;4861905;29;19924;-64
2023/01/07 19:17:10;;;;;;;;;;;;;;;6.22;80.37;97833.75;4851259;29;19925;-63
2023/01/07 19:19:35;;;;;;;;;;;;;;;6.16;79.99;97834.94;4853571;29;19932;-63
2023/01/07 19:22:00;;;;;;;;;;;;;;;6.10;80.16;97830.06;4841848;29;19921;-63
2023/01/07 19:24:25;;;;;;;;;;;;;;;6.05;80.44;97829.47;4841450;29;20380;-63
2023/01/07 19:26:50;;;;;;;;;;;;;;;6.02;81.52;97827.91;4853366;29;20019;-62
2023/01/07 19:29:19;;;;;;;;;;;;;;;6.01;81.26;97825.38;4860591;29;20234;-63
2023/01/07 19:31:44;;;;;;;;;;;;;;;5.96;82.09;97811.78;4860537;29;19924;-63
2023/01/07 19:34:13;;;;;;;;;;;;;;;5.94;81.71;97810.09;4860800;29;20018;-63
2023/01/07 19:36:38;;;;;;;;;;;;;;;5.91;81.33;97825.84;4859859;29;19916;-63
2023/01/07 19:39:03;;;;;;;;;;;;;;;5.87;80.87;97816.53;4858888;29;19967;-63
2023/01/07 19:41:28;;;;;;;;;;;;;;;5.84;80.77;97821.06;4864386;29;20010;-63
2023/01/07 19:43:58;;;;;;;;;;;;;;;5.81;80.69;97823.84;4849967;29;20038;-63
2023/01/07 19:46:25;;;;;;;;;;;;;;;5.80;80.71;97837.78;4859427;29;20125;-63
2023/01/07 19:48:50;;;;;;;;;;;;;;;5.74;80.34;97825.94;4859841;29;20006;-63
2023/01/07 19:51:15;;;;;;;;;;;;;;;5.74;80.64;97820.75;4858180;29;19944;-62
2023/01/07 19:53:41;;;;;;;;;;;;;;;5.74;81.17;97825.94;4855135;29;19923;-63
2023/01/07 19:56:07;;;;;;;;;;;;;;;5.74;81.69;97812.94;4843813;29;20392;-63
2023/01/07 19:58:32;;;;;;;;;;;;;;;5.69;80.90;97807.16;4864158;29;20300;-62
2023/01/07 20:01:03;;;;;;;;;;;;;;;5.70;81.17;97795.81;4856866;29;19927;-63
2023/01/07 20:03:38;;;;;;;;;;;;;;;5.69;81.18;97794.97;4859216;29;19923;-63
2023/01/07 20:06:04;;;;;;;;;;;;;;;5.69;81.72;97788.94;4841938;29;20457;-64
2023/01/07 20:08:29;;;;;;;;;;;;;;;5.65;81.01;97784.84;4842067;29;19917;-63
2023/01/07 20:10:56;;;;;;;;;;;;;;;5.64;81.66;97783.13;4850932;29;19920;-61
2023/01/07 20:13:21;;;;;;;;;;;;;;;5.61;81.60;97785.91;4850729;29;19927;-63
2023/01/07 20:15:46;;;;;;;;;;;;;;;5.59;81.39;97788.59;4849141;29;20293;-63
2023/01/07 20:18:13;;;;;;;;;;;;;;;5.57;81.60;97792.19;4840785;29;20007;-63
2023/01/07 20:20:39;;;;;;;;;;;;;;;5.55;81.75;97786.25;4843844;29;19936;-63
2023/01/07 20:23:04;;;;;;;;;;;;;;;5.50;82.16;97783.91;4858797;29;20007;-63
2023/01/07 20:25:29;;;;;;;;;;;;;;;5.48;82.50;97781.38;4852576;29;20077;-62
2023/01/07 20:27:54;;;;;;;;;;;;;;;5.46;82.92;97772.81;4855034;29;20018;-63
2023/01/07 20:30:20;;;;;;;;;;;;;;;5.43;82.55;97770.38;4856174;29;20035;-64
2023/01/07 20:32:45;;;;;;;;;;;;;;;5.39;82.52;97776.69;4856028;29;19947;-64
2023/01/07 20:35:10;;;;;;;;;;;;;;;5.40;82.87;97773.19;4859057;29;19927;-64
2023/01/07 20:37:35;;;;;;;;;;;;;;;5.36;82.63;97771.66;4844137;29;19921;-64
2023/01/07 20:40:00;;;;;;;;;;;;;;;5.36;82.82;97782.03;4847712;29;19927;-63
2023/01/07 20:42:26;;;;;;;;;;;;;;;5.36;82.76;97776.84;4858225;29;19920;-63
2023/01/07 20:44:52;;;;;;;;;;;;;;;5.36;82.58;97770.81;4858698;29;19920;-63
2023/01/07 20:47:17;;;;;;;;;;;;;;;5.36;82.39;97761.25;4846621;29;19924;-64
2023/01/07 20:49:42;;;;;;;;;;;;;;;5.37;82.63;97751.69;4841618;29;19916;-64
2023/01/07 20:52:08;;;;;;;;;;;;;;;5.38;82.75;97749.00;4841492;29;19923;-64
2023/01/07 20:54:33;;;;;;;;;;;;;;;5.35;82.40;97738.75;4852610;29;20029;-64
2023/01/07 20:56:58;;;;;;;;;;;;;;;5.36;81.96;97737.00;4854691;29;19920;-63
2023/01/07 20:59:23;;;;;;;;;;;;;;;5.33;82.09;97739.75;4844651;29;19975;-64
2023/01/07 21:01:48;;;;;;;;;;;;;;;5.28;82.07;97745.22;4859825;29;19917;-64
2023/01/07 21:04:14;;;;;;;;;;;;;;;5.24;82.28;97756.72;4858387;29;19927;-64
2023/01/07 21:06:39;;;;;;;;;;;;;;;5.19;82.95;97751.75;4857675;29;19927;-64
2023/01/07 21:09:05;;;;;;;;;;;;;;;5.21;83.40;97746.50;4852413;29;19967;-66
2023/01/07 21:11:30;;;;;;;;;;;;;;;5.21;83.41;97747.31;4842002;29;19950;-64
2023/01/07 21:13:55;;;;;;;;;;;;;;;5.24;83.33;97746.31;4859319;29;19920;-64
2023/01/07 21:16:24;;;;;;;;;;;;;;;5.23;83.33;97752.47;4854824;29;19963;-64
2023/01/07 21:18:49;;;;;;;;;;;;;;;5.15;83.18;97741.63;4848140;29;19920;-63
2023/01/07 21:21:15;;;;;;;;;;;;;;;5.19;83.06;97745.72;4858878;29;19927;-64
2023/01/07 21:23:40;;;;;;;;;;;;;;;5.16;82.39;97743.28;4850699;29;19921;-64
2023/01/07 21:26:06;;;;;;;;;;;;;;;5.14;82.59;97738.19;4858768;29;19924;-63
2023/01/07 21:28:31;;;;;;;;;;;;;;;5.12;82.52;97737.41;4857311;29;19968;-64
2023/01/07 21:31:00;;;;;;;;;;;;;;;5.11;82.74;97740.94;4853934;29;20293;-63
2023/01/07 21:33:26;;;;;;;;;;;;;;;5.10;82.97;97735.84;4855299;29;19924;-64
2023/01/07 21:35:51;;;;;;;;;;;;;;;5.09;83.03;97742.78;4860395;29;19923;-62
2023/01/07 21:38:16;;;;;;;;;;;;;;;5.06;83.05;97740.38;4861349;29;19928;-64
2023/01/07 21:40:41;;;;;;;;;;;;;;;5.07;82.82;97749.00;4855480;29;19920;-64
2023/01/07 21:43:06;;;;;;;;;;;;;;;5.07;83.46;97746.41;4861111;29;20003;-64
2023/01/07 21:45:32;;;;;;;;;;;;;;;5.06;83.11;97747.28;4847322;29;19963;-64
2023/01/07 21:47:57;;;;;;;;;;;;;;;5.05;83.23;97746.47;4843597;29;19983;-64
2023/01/07 21:50:22;;;;;;;;;;;;;;;5.04;83.06;97734.41;4849640;29;19928;-64
2023/01/07 21:52:47;;;;;;;;;;;;;;;5.02;83.42;97735.38;4858987;29;19980;-64
2023/01/07 21:55:13;;;;;;;;;;;;;;;5.02;83.90;97736.22;4854225;29;19928;-64
2023/01/07 21:57:38;;;;;;;;;;;;;;;5.02;84.84;97736.22;4864806;29;19924;-63
2023/01/07 22:00:04;;;;;;;;;;;;;;;5.06;84.51;97736.91;4863025;29;19916;-64
2023/01/07 22:02:29;;;;;;;;;;;;;;;5.06;84.59;97731.69;4860648;29;19928;-64
2023/01/07 22:04:54;;;;;;;;;;;;;;;5.08;84.08;97735.06;4861511;29;19927;-63
2023/01/07 22:07:20;;;;;;;;;;;;;;;5.10;84.30;97728.03;4848836;29;19917;-64
2023/01/07 22:09:45;;;;;;;;;;;;;;;5.09;84.29;97737.56;4855780;29;19970;-64
2023/01/07 22:12:10;;;;;;;;;;;;;;;5.07;84.17;97736.00;4856856;29;19989;-64
2023/01/07 22:14:35;;;;;;;;;;;;;;;5.05;83.90;97741.25;4858287;29;19920;-64
2023/01/07 22:17:01;;;;;;;;;;;;;;;5.05;83.82;97740.44;4861600;29;19968;-64
2023/01/07 22:19:27;;;;;;;;;;;;;;;5.02;83.60;97743.19;4861301;29;19927;-64
2023/01/07 22:21:52;;;;;;;;;;;;;;;5.02;83.30;97744.03;4861022;29;19920;-63
2023/01/07 22:24:17;;;;;;;;;;;;;;;5.02;83.51;97740.59;4840093;29;19916;-64
2023/01/07 22:26:43;;;;;;;;;;;;;;;4.97;83.46;97733.88;4862388;29;20007;-64
2023/01/07 22:29:08;;;;;;;;;;;;;;;4.95;83.32;97734.88;4862537;29;20002;-64
2023/01/07 22:31:35;;;;;;;;;;;;;;;4.95;83.10;97734.88;4859393;29;19947;-64
2023/01/07 22:34:00;;;;;;;;;;;;;;;4.92;83.42;97735.91;4857045;29;20349;-64
2023/01/07 22:36:25;;;;;;;;;;;;;;;4.92;83.97;97730.69;4846493;29;20381;-64
2023/01/07 22:38:50;;;;;;;;;;;;;;;4.87;84.55;97737.06;4861376;29;20445;-63
2023/01/07 22:41:16;;;;;;;;;;;;;;;4.90;84.49;97740.31;4861258;29;19920;-63
2023/01/07 22:43:41;;;;;;;;;;;;;;;4.91;84.37;97733.38;4860403;29;20014;-63
